Time;durP1;ratioP1;P1;durP2;ratioP2;P2;SDS_P1;SDS_P2;PMS_P1;PMS_P2;Temp;Humidity;BMP_temperature;BMP_pressure;BME280_temperature;BME280_humidity;BME280_pressure;Samples;Min_cycle;Max_cycle;Signal;HPM_P1;HPM_P2
2022/12/19 00:00:36;;;;;;;28.23;11.23;;;7.30;85.60;;;;;;6164978;23;20207;-78
2022/12/19 00:03:05;;;;;;;29.07;11.60;;;7.20;85.80;;;;;;6160227;23;20183;-77
2022/12/19 00:05:37;;;;;;;27.47;11.50;;;7.20;85.40;;;;;;6154682;23;20180;-78
2022/12/19 00:08:06;;;;;;;27.87;10.37;;;7.20;85.00;;;;;;6153123;23;20627;-77
2022/12/19 00:10:55;;;;;;;31.33;11.60;;;7.10;84.70;;;;;;6155433;23;20156;-78
2022/12/19 00:13:25;;;;;;;28.60;11.33;;;7.00;84.40;;;;;;6165624;23;20590;-78
2022/12/19 00:15:53;;;;;;;27.23;10.67;;;7.10;85.00;;;;;;6163847;23;20381;-78
2022/12/19 00:18:22;;;;;;;27.97;10.90;;;7.00;85.00;;;;;;6158541;23;20188;-77
2022/12/19 00:20:58;;;;;;;30.90;10.80;;;7.00;84.50;;;;;;6155006;23;20182;-78
2022/12/19 00:23:29;;;;;;;27.80;11.30;;;7.00;84.70;;;;;;6157355;23;20176;-79
2022/12/19 00:26:09;;;;;;;33.85;13.82;;;6.90;84.80;;;;;;6156160;23;20413;-79
2022/12/19 00:28:37;;;;;;;29.87;11.57;;;6.90;85.40;;;;;;6156969;23;20164;-78
2022/12/19 00:31:07;;;;;;;34.20;12.03;;;6.80;85.50;;;;;;6166994;23;20176;-78
2022/12/19 00:33:35;;;;;;;33.37;12.43;;;6.90;85.80;;;;;;6160533;23;20182;-77
2022/12/19 00:36:12;;;;;;;27.83;11.40;;;6.90;85.80;;;;;;6156645;23;20164;-79
2022/12/19 00:38:44;;;;;;;31.48;13.60;;;6.80;85.80;;;;;;6160200;23;20393;-78
2022/12/19 00:41:16;;;;;;;29.50;12.20;;;6.80;86.30;;;;;;6159896;23;20181;-78
2022/12/19 00:43:45;;;;;;;30.37;11.43;;;6.80;86.60;;;;;;6162591;23;20587;-78
2022/12/19 00:46:14;;;;;;;34.33;11.50;;;6.80;86.60;;;;;;6082060;23;20246;-77
2022/12/19 00:48:43;;;;;;;31.53;11.53;;;6.70;86.30;;;;;;6159015;23;20233;-78
2022/12/19 00:51:14;;;;;;;36.25;14.25;;;6.70;86.20;;;;;;6158394;23;20417;-77
2022/12/19 00:53:42;;;;;;;26.63;11.77;;;6.70;86.40;;;;;;6160181;23;20168;-77
2022/12/19 00:56:14;;;;;;;33.47;12.50;;;6.70;86.30;;;;;;6163658;23;20200;-77
2022/12/19 00:58:43;;;;;;;31.83;10.90;;;6.60;86.10;;;;;;6164784;23;20211;-77
2022/12/19 01:01:17;;;;;;;31.57;10.90;;;6.70;86.30;;;;;;6158178;23;20219;-78
2022/12/19 01:03:46;;;;;;;34.00;12.03;;;6.60;86.00;;;;;;6159245;23;20480;-77
2022/12/19 01:06:34;;;;;;;34.30;12.37;;;6.60;86.00;;;;;;6154519;23;20274;-76
2022/12/19 01:09:07;;;;;;;31.83;12.27;;;6.50;85.70;;;;;;6166225;23;20190;-78
2022/12/19 01:14:22;;;;;;;39.73;12.93;;;6.50;86.00;;;;;;6166308;23;20167;-77
2022/12/19 01:16:51;;;;;;;35.50;13.80;;;6.40;86.00;;;;;;6160879;23;20398;-76
2022/12/19 01:19:19;;;;;;;33.30;12.73;;;6.40;86.20;;;;;;6162385;23;20182;-76
2022/12/19 01:21:48;;;;;;;32.33;13.57;;;6.40;86.30;;;;;;6163200;23;20535;-76
2022/12/19 01:24:16;;;;;;;33.63;12.37;;;6.40;86.10;;;;;;6163988;23;20605;-79
2022/12/19 01:26:47;;;;;;;32.33;12.53;;;6.30;86.20;;;;;;6170834;23;20178;-79
2022/12/19 01:29:16;;;;;;;36.38;13.70;;;6.30;86.20;;;;;;6163317;23;20756;-78
2022/12/19 01:31:44;;;;;;;36.67;12.40;;;6.30;86.20;;;;;;6159951;23;20690;-78
2022/12/19 01:34:12;;;;;;;41.53;14.30;;;6.30;86.10;;;;;;6154572;23;20729;-75
2022/12/19 01:36:41;;;;;;;35.43;13.07;;;6.30;86.30;;;;;;6160902;23;20639;-77
2022/12/19 01:39:09;;;;;;;29.33;12.33;;;6.30;86.50;;;;;;6161350;23;20602;-76
2022/12/19 01:41:37;;;;;;;30.77;11.40;;;6.30;86.50;;;;;;6165601;23;20512;-77
2022/12/19 01:44:09;;;;;;;33.87;13.20;;;6.30;86.50;;;;;;6161439;23;20246;-78
2022/12/19 01:46:40;;;;;;;33.83;13.63;;;6.20;85.90;;;;;;6157258;23;20164;-77
2022/12/19 01:49:16;;;;;;;32.53;11.67;;;6.20;85.90;;;;;;6157403;23;20213;-77
2022/12/19 01:51:48;;;;;;;31.80;12.83;;;6.20;85.80;;;;;;6161394;23;20639;-77
2022/12/19 01:54:22;;;;;;;31.57;12.37;;;6.20;85.90;;;;;;6161061;23;20168;-78
2022/12/19 01:56:53;;;;;;;39.63;15.53;;;6.10;85.80;;;;;;6164810;23;20386;-79
2022/12/19 01:59:27;;;;;;;36.33;14.20;;;6.10;86.50;;;;;;6161264;23;20430;-78
2022/12/19 02:02:01;;;;;;;39.53;13.43;;;6.10;86.60;;;;;;6171543;23;20164;-78
2022/12/19 02:04:31;;;;;;;34.53;13.23;;;6.10;86.60;;;;;;6159278;23;20166;-78
2022/12/19 02:07:01;;;;;;;34.93;13.33;;;6.10;86.10;;;;;;6155719;23;20213;-79
2022/12/19 02:09:43;;;;;;;34.90;13.70;;;6.00;85.80;;;;;;6166908;23;20450;-77
2022/12/19 02:12:11;;;;;;;41.63;12.93;;;6.00;86.20;;;;;;6159775;23;20653;-77
2022/12/19 02:14:42;;;;;;;28.63;12.33;;;6.00;86.10;;;;;;6156164;23;20182;-78
2022/12/19 02:17:18;;;;;;;31.23;12.90;;;5.90;85.30;;;;;;6156791;23;20158;-77
2022/12/19 02:20:24;;;;;;;27.33;11.63;;;5.90;85.40;;;;;;6159940;23;20538;-77
2022/12/19 02:23:11;;;;;;;30.73;11.83;;;5.80;84.60;;;;;;6156951;23;20535;-77
2022/12/19 02:26:02;;;;;;;34.87;13.07;;;5.80;85.00;;;;;;6155549;23;20163;-77
2022/12/19 02:28:59;;;;;;;37.43;13.23;;;5.80;85.00;;;;;;6160550;23;20495;-77
2022/12/19 02:31:31;;;;;;;32.37;12.33;;;5.80;85.20;;;;;;6170053;23;20224;-77
2022/12/19 02:34:04;;;;;;;33.08;12.82;;;5.80;85.50;;;;;;6161753;23;20390;-78
2022/12/19 02:36:38;;;;;;;36.43;13.90;;;5.80;85.60;;;;;;6167231;23;20184;-77
2022/12/19 02:39:15;;;;;;;28.90;11.30;;;5.80;85.70;;;;;;6161550;23;20748;-78
2022/12/19 02:41:48;;;;;;;32.30;13.43;;;5.80;85.80;;;;;;6159805;23;20159;-77
2022/12/19 02:44:21;;;;;;;35.80;13.33;;;5.80;85.70;;;;;;6152627;23;20666;-78
2022/12/19 02:46:52;;;;;;;30.60;11.97;;;5.70;85.10;;;;;;6155857;23;20180;-78
2022/12/19 02:49:20;;;;;;;31.33;11.97;;;5.60;85.20;;;;;;6154519;23;20161;-77
2022/12/19 02:51:58;;;;;;;37.23;12.80;;;5.60;85.50;;;;;;6160164;23;20181;-76
2022/12/19 02:54:26;;;;;;;31.83;12.67;;;5.60;85.70;;;;;;6157406;23;20549;-77
2022/12/19 02:57:00;;;;;;;39.00;12.20;;;5.60;85.60;;;;;;6156060;23;20232;-78
2022/12/19 02:59:41;;;;;;;31.80;13.07;;;5.60;85.80;;;;;;6157322;23;20209;-78
2022/12/19 03:02:20;;;;;;;29.33;12.30;;;5.50;85.50;;;;;;6157541;23;20180;-78
2022/12/19 03:04:54;;;;;;;32.80;12.20;;;5.60;85.80;;;;;;6158421;23;20174;-79
2022/12/19 03:07:34;;;;;;;31.83;11.70;;;5.50;85.70;;;;;;6162149;23;20161;-78
2022/12/19 03:10:12;;;;;;;37.17;12.27;;;5.60;85.80;;;;;;6162024;23;20153;-78
2022/12/19 03:12:50;;;;;;;32.58;12.50;;;5.50;85.50;;;;;;6154777;23;20414;-78
2022/12/19 03:15:19;;;;;;;33.10;11.83;;;5.50;85.50;;;;;;6153638;23;20225;-78
2022/12/19 03:17:49;;;;;;;35.07;12.43;;;5.40;85.70;;;;;;6158572;23;20180;-78
2022/12/19 03:20:24;;;;;;;35.20;11.60;;;5.40;85.80;;;;;;6158022;23;20169;-78
2022/12/19 03:22:52;;;;;;;34.57;12.00;;;5.40;85.90;;;;;;6173185;23;20214;-77
2022/12/19 03:25:22;;;;;;;33.30;13.07;;;5.40;86.00;;;;;;6165114;23;20181;-78
2022/12/19 03:27:52;;;;;;;32.03;14.43;;;5.40;86.10;;;;;;6160708;23;20387;-79
2022/12/19 03:30:21;;;;;;;32.73;12.23;;;5.40;86.60;;;;;;6157504;23;20580;-78
2022/12/19 03:32:52;;;;;;;31.37;12.03;;;5.40;86.60;;;;;;6157750;23;20239;-77
2022/12/19 03:35:23;;;;;;;29.00;12.17;;;5.40;86.20;;;;;;6155549;23;20159;-77
2022/12/19 03:37:58;;;;;;;30.93;12.30;;;5.40;85.90;;;;;;6160526;23;20246;-78
2022/12/19 03:40:28;;;;;;;35.78;14.13;;;5.40;85.80;;;;;;6082070;23;20390;-78
2022/12/19 03:43:10;;;;;;;28.17;11.83;;;5.40;86.00;;;;;;6158718;23;20163;-78
2022/12/19 03:46:00;;;;;;;31.30;12.03;;;5.30;85.80;;;;;;6160777;23;20154;-78
2022/12/19 03:48:36;;;;;;;27.73;11.77;;;5.30;85.60;;;;;;6159704;23;20393;-78
2022/12/19 03:51:17;;;;;;;34.77;12.37;;;5.30;85.60;;;;;;6159420;23;20179;-77
2022/12/19 03:53:53;;;;;;;30.30;12.23;;;5.30;85.50;;;;;;6171680;23;20166;-77
2022/12/19 03:56:30;;;;;;;27.53;12.40;;;5.30;85.60;;;;;;6157285;23;20160;-77
2022/12/19 03:59:02;;;;;;;26.63;11.83;;;5.20;85.90;;;;;;6162945;23;20204;-78
2022/12/19 04:01:34;;;;;;;29.53;12.03;;;5.30;85.90;;;;;;6163202;23;20149;-77
2022/12/19 04:04:05;;;;;;;33.87;12.50;;;5.20;85.80;;;;;;6163931;23;20157;-78
2022/12/19 04:06:35;;;;;;;32.83;12.60;;;5.30;85.80;;;;;;6161683;23;20166;-78
2022/12/19 04:09:04;;;;;;;33.63;11.73;;;5.20;85.50;;;;;;6164720;23;20547;-77
2022/12/19 04:11:37;;;;;;;27.43;11.00;;;5.20;85.80;;;;;;6157843;23;20192;-77
2022/12/19 04:14:10;;;;;;;35.40;13.30;;;5.20;85.50;;;;;;6157768;23;20616;-78
2022/12/19 04:16:47;;;;;;;35.40;12.20;;;5.10;85.60;;;;;;6159466;23;20161;-78
2022/12/19 04:19:21;;;;;;;31.33;11.30;;;5.10;85.50;;;;;;6170901;23;20165;-78
2022/12/19 04:21:56;;;;;;;23.93;10.97;;;5.10;85.50;;;;;;6155804;23;20157;-77
2022/12/19 04:24:29;;;;;;;24.07;10.10;;;5.10;85.70;;;;;;6165801;23;20187;-79
2022/12/19 04:26:58;;;;;;;28.27;12.27;;;5.10;85.80;;;;;;6165764;23;20536;-77
2022/12/19 04:29:29;;;;;;;28.33;11.30;;;5.10;85.70;;;;;;6160915;23;20487;-78
2022/12/19 04:31:57;;;;;;;25.40;11.23;;;5.10;85.40;;;;;;6158924;23;20282;-77
2022/12/19 04:34:27;;;;;;;34.83;11.73;;;5.10;85.30;;;;;;6164184;23;20185;-76
2022/12/19 04:36:55;;;;;;;29.40;11.77;;;5.00;85.10;;;;;;6174553;23;20204;-77
2022/12/19 04:39:23;;;;;;;30.37;11.47;;;5.10;86.20;;;;;;6163816;23;20176;-75
2022/12/19 04:41:52;;;;;;;30.77;12.50;;;5.10;86.30;;;;;;6163454;23;20173;-75
2022/12/19 04:44:20;;;;;;;30.90;12.57;;;5.10;85.30;;;;;;6172729;23;20387;-77
2022/12/19 04:46:49;;;;;;;29.90;11.53;;;5.10;85.50;;;;;;6169089;23;20177;-77
2022/12/19 04:49:17;;;;;;;30.80;12.10;;;5.10;85.50;;;;;;6171840;23;20185;-77
2022/12/19 04:51:47;;;;;;;28.50;11.23;;;5.10;85.40;;;;;;6164605;23;20188;-77
2022/12/19 04:54:15;;;;;;;31.47;11.63;;;5.10;85.20;;;;;;6158861;23;20211;-76
2022/12/19 04:56:43;;;;;;;26.50;11.70;;;5.10;85.00;;;;;;6169693;23;20177;-78
2022/12/19 04:59:12;;;;;;;27.33;9.57;;;5.00;84.70;;;;;;6159550;23;20206;-77
2022/12/19 05:01:40;;;;;;;27.83;11.03;;;5.00;84.70;;;;;;6165971;23;20178;-78
2022/12/19 05:04:08;;;;;;;30.63;11.50;;;5.00;84.50;;;;;;6174459;23;20184;-78
2022/12/19 05:06:38;;;;;;;34.63;11.17;;;5.00;84.70;;;;;;6171047;23;20200;-77
2022/12/19 05:09:10;;;;;;;24.40;10.47;;;5.00;84.70;;;;;;6171191;23;20180;-77
2022/12/19 05:11:38;;;;;;;31.63;12.48;;;5.00;84.80;;;;;;6171319;23;20437;-78
2022/12/19 05:14:08;;;;;;;26.80;11.60;;;4.90;84.70;;;;;;6173838;23;20164;-78
2022/12/19 05:16:37;;;;;;;29.90;12.43;;;4.90;84.20;;;;;;6168908;23;20609;-78
2022/12/19 05:19:05;;;;;;;27.63;10.73;;;4.90;84.30;;;;;;6172710;23;20196;-77
2022/12/19 05:21:33;;;;;;;26.83;11.93;;;4.80;84.40;;;;;;6168987;23;20174;-77
2022/12/19 05:24:01;;;;;;;27.90;10.57;;;4.80;84.70;;;;;;6171661;23;20162;-77
2022/12/19 05:26:31;;;;;;;28.03;13.00;;;4.80;84.50;;;;;;6167275;23;20418;-77
2022/12/19 05:29:00;;;;;;;21.97;9.87;;;4.80;84.70;;;;;;6170502;23;20468;-77
2022/12/19 05:31:28;;;;;;;26.47;11.37;;;4.80;84.70;;;;;;6164827;23;20193;-78
2022/12/19 05:33:56;;;;;;;24.80;10.57;;;4.80;84.60;;;;;;6166822;23;20839;-78
2022/12/19 05:36:25;;;;;;;23.00;10.70;;;4.90;84.40;;;;;;6164873;23;20231;-76
2022/12/19 05:38:59;;;;;;;25.55;10.85;;;4.90;84.30;;;;;;6162353;23;20395;-77
2022/12/19 05:41:27;;;;;;;24.53;10.30;;;4.80;84.50;;;;;;6168608;23;20178;-77
2022/12/19 05:43:57;;;;;;;28.83;10.03;;;4.90;84.50;;;;;;6159869;23;20696;-77
2022/12/19 05:46:26;;;;;;;31.03;11.73;;;4.90;84.40;;;;;;6164517;23;20177;-77
2022/12/19 05:48:55;;;;;;;24.17;10.73;;;4.90;84.10;;;;;;6161331;23;20618;-77
2022/12/19 05:51:24;;;;;;;21.70;9.68;;;4.80;83.50;;;;;;6163796;23;20390;-77
2022/12/19 05:53:52;;;;;;;22.87;10.00;;;4.80;82.90;;;;;;6152568;23;20243;-77
2022/12/19 05:56:22;;;;;;;20.77;9.53;;;4.80;83.40;;;;;;6158668;23;20200;-77
2022/12/19 05:58:50;;;;;;;22.97;10.13;;;4.80;83.50;;;;;;6159690;23;20204;-78
2022/12/19 06:01:22;;;;;;;20.63;9.10;;;4.80;83.10;;;;;;6160172;23;20161;-77
2022/12/19 06:03:51;;;;;;;24.95;10.43;;;4.80;83.20;;;;;;6156253;23;20325;-77
2022/12/19 06:06:22;;;;;;;24.13;10.50;;;4.80;83.00;;;;;;6169120;23;20238;-77
2022/12/19 06:08:53;;;;;;;31.03;11.43;;;4.80;82.70;;;;;;6155342;23;20187;-76
2022/12/19 06:11:21;;;;;;;23.23;9.30;;;4.80;83.00;;;;;;6154482;23;20161;-77
2022/12/19 06:13:50;;;;;;;21.80;9.97;;;4.80;83.00;;;;;;6158944;23;20169;-77
2022/12/19 06:16:22;;;;;;;26.53;10.17;;;4.80;82.90;;;;;;6160706;23;20181;-78
2022/12/19 06:18:51;;;;;;;28.83;11.38;;;4.70;82.40;;;;;;6154155;23;20445;-78
2022/12/19 06:21:20;;;;;;;21.43;10.57;;;4.80;83.30;;;;;;6159017;23;20173;-78
2022/12/19 06:23:52;;;;;;;24.73;10.53;;;4.80;83.20;;;;;;6157116;23;20485;-76
2022/12/19 06:26:21;;;;;;;21.60;9.30;;;4.80;83.00;;;;;;6162180;23;20161;-76
2022/12/19 06:28:51;;;;;;;26.23;10.70;;;4.80;82.70;;;;;;6154499;23;20215;-76
2022/12/19 06:31:23;;;;;;;21.53;9.00;;;4.80;82.80;;;;;;6153719;23;20247;-75
2022/12/19 06:33:51;;;;;;;21.17;9.07;;;4.70;82.40;;;;;;6152444;23;20211;-76
2022/12/19 06:36:22;;;;;;;26.10;10.43;;;4.70;82.40;;;;;;6157984;23;20204;-76
2022/12/19 06:38:51;;;;;;;25.20;10.73;;;4.70;82.00;;;;;;6156757;23;20196;-75
2022/12/19 06:44:08;;;;;;;23.83;9.70;;;4.70;82.20;;;;;;6156797;23;20946;-75
2022/12/19 06:46:39;;;;;;;20.27;8.63;;;4.70;81.90;;;;;;6156280;23;20183;-76
2022/12/19 06:49:08;;;;;;;25.63;9.67;;;4.70;82.20;;;;;;6156250;23;20164;-75
2022/12/19 06:51:37;;;;;;;28.10;11.57;;;4.70;81.80;;;;;;6153889;23;20180;-76
2022/12/19 06:54:05;;;;;;;26.67;9.80;;;4.70;82.30;;;;;;6156869;23;20196;-77
2022/12/19 06:56:35;;;;;;;20.33;9.23;;;4.70;82.40;;;;;;6154074;23;20180;-76
2022/12/19 06:59:06;;;;;;;24.10;10.13;;;4.70;82.60;;;;;;6153390;23;20752;-75
2022/12/19 07:01:47;;;;;;;22.87;9.73;;;4.70;82.60;;;;;;6154806;23;20165;-75
2022/12/19 07:04:21;;;;;;;23.23;9.77;;;4.70;82.30;;;;;;6155181;23;20463;-76
2022/12/19 07:06:52;;;;;;;23.03;10.03;;;4.70;82.70;;;;;;6156043;23;20171;-75
2022/12/19 07:09:20;;;;;;;26.07;10.50;;;4.70;82.90;;;;;;6155575;23;20172;-75
2022/12/19 07:11:48;;;;;;;25.60;11.10;;;4.80;83.10;;;;;;6078251;23;20458;-76
2022/12/19 07:14:17;;;;;;;21.07;10.00;;;4.80;83.00;;;;;;6150341;23;20669;-76
2022/12/19 07:16:49;;;;;;;27.30;10.70;;;4.80;83.00;;;;;;6152469;23;20211;-76
2022/12/19 07:19:21;;;;;;;28.27;10.80;;;4.80;83.00;;;;;;6103303;23;20172;-78
2022/12/19 07:21:50;;;;;;;19.73;8.47;;;4.90;83.10;;;;;;6153640;23;20176;-77
2022/12/19 07:24:19;;;;;;;23.27;10.07;;;4.90;82.70;;;;;;6154349;23;20156;-76
2022/12/19 07:26:48;;;;;;;23.43;10.63;;;4.90;82.90;;;;;;6155921;23;20391;-76
2022/12/19 07:29:16;;;;;;;27.70;10.17;;;4.90;82.70;;;;;;6159743;23;20395;-77
2022/12/19 07:31:45;;;;;;;24.57;9.83;;;4.90;82.70;;;;;;6152734;23;20507;-77
2022/12/19 07:34:14;;;;;;;27.07;11.00;;;5.00;82.60;;;;;;6157069;23;20176;-78
2022/12/19 07:36:43;;;;;;;23.00;10.23;;;5.00;82.60;;;;;;6160437;23;20574;-78
2022/12/19 07:39:11;;;;;;;25.23;10.47;;;5.00;82.40;;;;;;6167736;23;20168;-76
2022/12/19 07:41:42;;;;;;;24.43;9.67;;;5.00;82.30;;;;;;6159057;23;20172;-75
2022/12/19 07:44:12;;;;;;;23.83;10.40;;;4.90;82.20;;;;;;6155317;23;20153;-75
2022/12/19 07:46:40;;;;;;;30.27;9.90;;;4.90;82.30;;;;;;6159596;23;20251;-76
2022/12/19 07:49:09;;;;;;;26.37;10.80;;;4.90;81.80;;;;;;6156270;23;20185;-76
2022/12/19 07:51:38;;;;;;;26.00;10.70;;;4.90;82.30;;;;;;6155629;23;20182;-77
2022/12/19 07:54:07;;;;;;;26.03;10.83;;;4.90;82.00;;;;;;6157129;23;20243;-77
2022/12/19 07:56:35;;;;;;;22.60;9.60;;;4.90;81.70;;;;;;6156985;23;20172;-77
2022/12/19 07:59:03;;;;;;;22.93;10.00;;;4.90;81.70;;;;;;6155526;23;20205;-77
2022/12/19 08:01:32;;;;;;;22.90;10.10;;;4.90;82.00;;;;;;6157346;23;20161;-78
2022/12/19 08:04:01;;;;;;;26.17;11.23;;;4.90;82.20;;;;;;6153824;23;20511;-75
2022/12/19 08:06:29;;;;;;;25.17;10.00;;;4.90;82.10;;;;;;6158539;23;20188;-76
2022/12/19 08:08:59;;;;;;;29.20;10.03;;;4.90;82.00;;;;;;6155686;23;20180;-77
2022/12/19 08:11:28;;;;;;;28.30;12.52;;;5.00;82.00;;;;;;6154402;23;20390;-77
2022/12/19 08:13:57;;;;;;;28.87;10.47;;;5.00;81.90;;;;;;6154552;23;20202;-77
2022/12/19 08:16:27;;;;;;;24.93;10.40;;;5.00;81.60;;;;;;6158447;23;20177;-77
2022/12/19 08:18:56;;;;;;;22.83;9.53;;;5.00;81.40;;;;;;6154897;23;20160;-77
2022/12/19 08:21:24;;;;;;;25.13;10.43;;;5.00;81.40;;;;;;6152985;23;20181;-77
2022/12/19 08:23:53;;;;;;;27.92;11.27;;;5.10;81.40;;;;;;6150406;23;20788;-77
2022/12/19 08:26:24;;;;;;;25.10;10.87;;;5.10;81.30;;;;;;6160901;23;20181;-77
2022/12/19 08:28:54;;;;;;;22.80;9.53;;;5.10;81.40;;;;;;6159401;23;20160;-76
2022/12/19 08:31:24;;;;;;;25.60;11.57;;;5.20;81.40;;;;;;6154663;23;20201;-75
2022/12/19 08:33:53;;;;;;;22.87;9.97;;;5.20;81.40;;;;;;6166215;23;20180;-75
2022/12/19 08:36:22;;;;;;;24.20;10.53;;;5.30;81.40;;;;;;6160583;23;20184;-76
2022/12/19 08:38:52;;;;;;;27.70;13.05;;;5.30;81.10;;;;;;6156764;23;20418;-77
2022/12/19 08:41:20;;;;;;;29.57;11.70;;;5.30;81.60;;;;;;6157942;23;20179;-77
2022/12/19 08:43:52;;;;;;;26.27;10.40;;;5.30;81.10;;;;;;6158939;23;20174;-76
2022/12/19 08:46:23;;;;;;;22.77;9.83;;;5.30;81.00;;;;;;6160110;23;20162;-77
2022/12/19 08:48:51;;;;;;;25.63;11.13;;;5.40;81.20;;;;;;6157442;23;20164;-78
2022/12/19 08:51:22;;;;;;;27.10;11.97;;;5.50;81.10;;;;;;6156150;23;20439;-79
2022/12/19 08:53:51;;;;;;;21.70;10.47;;;5.60;81.30;;;;;;6159148;23;20188;-78
2022/12/19 08:56:21;;;;;;;28.83;12.10;;;5.60;81.30;;;;;;6158761;23;20704;-77
2022/12/19 08:58:51;;;;;;;29.47;11.87;;;5.60;81.60;;;;;;6160533;23;20886;-78
2022/12/19 09:01:22;;;;;;;27.63;10.90;;;5.60;80.50;;;;;;6165525;23;20168;-77
2022/12/19 09:03:58;;;;;;;33.77;12.30;;;5.60;80.00;;;;;;6156587;23;20162;-77
2022/12/19 09:06:46;;;;;;;26.07;11.47;;;5.60;80.20;;;;;;6161726;23;20196;-77
2022/12/19 09:09:17;;;;;;;28.90;12.07;;;5.60;80.60;;;;;;6162400;23;20434;-77
2022/12/19 09:11:45;;;;;;;27.77;10.73;;;5.70;80.80;;;;;;6170225;23;20176;-78
2022/12/19 09:14:16;;;;;;;28.50;11.10;;;5.70;80.90;;;;;;6161659;23;20197;-78
2022/12/19 09:16:49;;;;;;;30.45;13.50;;;5.70;81.10;;;;;;6164598;23;20383;-77
2022/12/19 09:19:17;;;;;;;22.17;10.00;;;5.70;81.80;;;;;;6159491;23;20231;-78
2022/12/19 09:21:45;;;;;;;27.77;12.00;;;5.80;81.10;;;;;;6159967;23;20445;-78
2022/12/19 09:24:16;;;;;;;25.10;11.07;;;5.90;80.80;;;;;;6157162;23;20172;-77
2022/12/19 09:26:44;;;;;;;25.20;11.37;;;5.90;80.30;;;;;;6158745;23;20176;-77
2022/12/19 09:29:13;;;;;;;31.98;14.80;;;6.00;79.80;;;;;;6160549;23;20391;-78
2022/12/19 09:31:52;;;;;;;26.37;11.03;;;6.00;79.70;;;;;;6164549;23;20174;-77
2022/12/19 09:34:24;;;;;;;28.60;12.80;;;5.90;79.10;;;;;;6158676;23;20186;-76
2022/12/19 09:37:36;;;;;;;28.77;12.00;;;5.90;79.00;;;;;;6149355;23;20171;-81
2022/12/19 09:40:06;;;;;;;29.07;12.43;;;5.90;79.20;;;;;;6128731;23;20210;-78
2022/12/19 09:43:02;;;;;;;31.33;14.05;;;5.90;79.00;;;;;;6154428;23;20682;-80
2022/12/19 09:49:46;;;;;;;23.30;11.20;;;6.00;80.30;;;;;;5943651;23;20241;-81
2022/12/19 09:52:18;;;;;;;23.03;10.63;;;6.10;79.30;;;;;;6005522;23;20644;-84
2022/12/19 09:54:52;;;;;;;29.23;13.80;;;6.10;79.00;;;;;;6120955;23;20938;-81
2022/12/19 09:57:26;;;;;;;29.37;12.77;;;6.10;79.50;;;;;;6155041;23;20211;-80
2022/12/19 09:59:58;;;;;;;24.00;11.00;;;6.10;81.00;;;;;;6156025;23;20204;-81
2022/12/19 10:02:37;;;;;;;28.97;11.43;;;6.10;79.70;;;;;;6152789;23;20165;-81
2022/12/19 10:05:15;;;;;;;25.80;11.37;;;6.10;79.40;;;;;;6155664;23;20524;-79
2022/12/19 10:08:14;;;;;;;30.00;12.63;;;6.10;79.60;;;;;;6154331;23;20908;-79
2022/12/19 10:10:54;;;;;;;30.03;11.40;;;6.20;80.00;;;;;;6155425;23;20179;-81
2022/12/19 10:14:03;;;;;;;32.77;12.80;;;6.20;79.70;;;;;;6152981;23;20258;-79
2022/12/19 10:16:42;;;;;;;29.47;11.63;;;6.30;79.40;;;;;;6153943;23;20180;-80
2022/12/19 10:19:38;;;;;;;23.67;10.37;;;6.40;79.20;;;;;;6151337;23;20229;-80
2022/12/19 10:22:18;;;;;;;24.60;11.43;;;6.40;79.20;;;;;;6155785;23;20167;-79
2022/12/19 10:25:13;;;;;;;25.30;10.40;;;6.50;79.40;;;;;;6153899;23;20218;-79
2022/12/19 10:27:50;;;;;;;24.73;10.87;;;6.50;78.90;;;;;;6151187;23;20170;-81
2022/12/19 10:30:30;;;;;;;30.27;12.53;;;6.60;79.10;;;;;;6153658;23;20592;-80
2022/12/19 10:33:09;;;;;;;25.60;10.90;;;6.70;79.20;;;;;;6153844;23;20215;-80
2022/12/19 10:35:54;;;;;;;26.57;11.57;;;6.70;79.40;;;;;;6154068;23;20180;-81
2022/12/19 10:38:31;;;;;;;24.40;11.53;;;6.70;78.60;;;;;;6151445;23;20165;-80
2022/12/19 10:41:15;;;;;;;31.33;11.70;;;6.80;78.40;;;;;;6152378;23;20164;-81
2022/12/19 10:43:52;;;;;;;27.80;11.57;;;6.80;78.50;;;;;;6154910;23;20195;-82
2022/12/19 10:46:30;;;;;;;27.20;12.50;;;6.80;78.60;;;;;;6148794;23;20181;-80
2022/12/19 10:48:58;;;;;;;28.27;11.67;;;6.80;78.40;;;;;;6150467;23;20157;-81
2022/12/19 10:51:29;;;;;;;28.53;10.50;;;6.90;77.70;;;;;;6154385;23;20230;-81
2022/12/19 10:54:00;;;;;;;25.50;11.40;;;6.90;77.90;;;;;;6152262;23;20164;-81
2022/12/19 10:56:30;;;;;;;32.10;12.50;;;6.80;77.30;;;;;;6148852;23;20181;-80
2022/12/19 10:59:15;;;;;;;23.10;11.00;;;6.80;77.10;;;;;;6152675;23;20277;-79
2022/12/19 11:01:43;;;;;;;25.83;9.80;;;6.70;76.70;;;;;;6152853;23;20198;-80
2022/12/19 11:04:29;;;;;;;31.97;12.33;;;6.80;77.60;;;;;;6155536;23;20163;-81
2022/12/19 11:07:18;;;;;;;31.47;13.50;;;6.70;77.40;;;;;;6151689;23;20762;-80
2022/12/19 11:09:48;;;;;;;30.40;12.10;;;6.80;78.10;;;;;;6153098;23;20164;-79
2022/12/19 11:12:36;;;;;;;29.67;12.47;;;6.80;78.00;;;;;;6153370;23;20173;-81
2022/12/19 11:15:24;;;;;;;28.87;11.70;;;6.80;77.30;;;;;;6144197;23;20279;-81
2022/12/19 11:18:13;;;;;;;32.37;12.47;;;6.80;77.00;;;;;;6148293;23;20717;-79
2022/12/19 11:21:03;;;;;;;26.33;12.23;;;6.80;76.90;;;;;;6148078;23;20211;-80
2022/12/19 11:23:54;;;;;;;25.87;10.63;;;6.80;77.20;;;;;;6150954;23;20215;-81
2022/12/19 11:26:46;;;;;;;33.50;11.70;;;6.80;77.20;;;;;;6151744;23;20220;-80
2022/12/19 11:29:47;;;;;;;29.43;11.63;;;6.90;77.20;;;;;;6150622;23;20257;-78
2022/12/19 11:32:38;;;;;;;26.67;11.97;;;6.90;77.00;;;;;;6151006;23;20254;-78
2022/12/19 11:35:18;;;;;;;29.40;11.97;;;6.90;77.20;;;;;;6149932;23;20248;-79
2022/12/19 11:37:55;;;;;;;27.57;12.20;;;6.90;76.90;;;;;;6154458;23;20239;-79
2022/12/19 11:40:31;;;;;;;28.87;10.83;;;7.00;77.20;;;;;;6153211;23;20543;-78
2022/12/19 11:43:07;;;;;;;28.47;12.23;;;7.00;77.30;;;;;;6151481;23;20168;-79
2022/12/19 11:46:02;;;;;;;31.10;13.90;;;7.00;76.00;;;;;;6152563;23;20473;-78
2022/12/19 11:48:39;;;;;;;26.77;12.20;;;6.90;76.00;;;;;;6150913;23;20222;-78
2022/12/19 11:51:17;;;;;;;26.47;10.77;;;6.80;76.50;;;;;;6153169;23;20430;-79
2022/12/19 11:53:53;;;;;;;26.03;11.80;;;6.80;76.90;;;;;;6149988;23;20505;-79
2022/12/19 11:56:24;;;;;;;30.17;13.37;;;6.80;76.90;;;;;;6151802;23;20562;-79
2022/12/19 11:58:57;;;;;;;27.60;12.67;;;6.80;76.70;;;;;;6150863;23;20529;-79
2022/12/19 12:01:44;;;;;;;31.87;13.63;;;6.80;76.70;;;;;;6148457;23;20164;-79
2022/12/19 12:04:38;;;;;;;31.87;14.10;;;6.60;76.70;;;;;;6151014;23;20217;-79
2022/12/19 12:07:07;;;;;;;29.43;13.17;;;6.60;76.20;;;;;;6153809;23;20226;-78
2022/12/19 12:10:02;;;;;;;34.03;12.50;;;6.60;76.70;;;;;;6151928;23;20275;-80
2022/12/19 12:13:08;;;;;;;31.63;14.20;;;6.50;76.80;;;;;;6152423;23;20471;-79
2022/12/19 12:16:05;;;;;;;28.07;13.17;;;6.50;77.30;;;;;;6150781;23;20202;-81
2022/12/19 12:19:04;;;;;;;27.50;12.17;;;6.50;77.60;;;;;;6152484;23;20686;-79
2022/12/19 12:22:06;;;;;;;26.07;12.17;;;6.60;77.60;;;;;;6150857;23;20218;-78
2022/12/19 12:25:03;;;;;;;31.10;14.48;;;6.60;77.20;;;;;;6150934;23;20433;-77
2022/12/19 12:28:10;;;;;;;30.43;12.47;;;6.60;77.30;;;;;;6150256;23;20266;-79
2022/12/19 12:31:11;;;;;;;29.63;12.83;;;6.60;77.20;;;;;;6152795;23;20818;-75
2022/12/19 12:34:18;;;;;;;27.67;13.00;;;6.70;77.30;;;;;;6151116;23;20220;-76
2022/12/19 12:37:21;;;;;;;33.87;13.60;;;6.60;77.90;;;;;;6148594;23;20645;-75
2022/12/19 12:40:35;;;;;;;33.53;12.87;;;6.70;77.30;;;;;;6148069;23;20185;-75
2022/12/19 12:43:15;;;;;;;29.43;12.20;;;6.80;77.60;;;;;;6152089;23;20163;-75
2022/12/19 12:45:44;;;;;;;35.50;12.93;;;6.80;77.60;;;;;;6153013;23;20157;-76
2022/12/19 12:48:22;;;;;;;29.77;12.63;;;6.80;77.20;;;;;;6148158;23;20199;-76
2022/12/19 12:50:52;;;;;;;34.28;15.43;;;6.80;77.60;;;;;;6151818;23;20414;-76
2022/12/19 12:53:26;;;;;;;31.10;13.53;;;6.80;77.50;;;;;;6152084;23;20164;-75
2022/12/19 12:55:57;;;;;;;28.70;13.40;;;6.70;77.50;;;;;;6155504;23;20184;-76
2022/12/19 12:59:04;;;;;;;28.60;13.10;;;6.70;77.40;;;;;;6155002;23;20170;-77
2022/12/19 13:01:38;;;;;;;32.70;11.93;;;6.70;77.20;;;;;;6154699;23;20634;-77
2022/12/19 13:04:25;;;;;;;35.50;12.87;;;6.70;77.30;;;;;;6153993;23;20600;-76
2022/12/19 13:07:27;;;;;;;33.70;11.90;;;6.60;77.60;;;;;;6154640;23;20160;-77
2022/12/19 13:10:16;;;;;;;28.90;13.23;;;6.60;77.50;;;;;;6131722;23;20229;-75
2022/12/19 13:13:00;;;;;;;25.67;11.73;;;6.70;77.20;;;;;;6154375;23;20168;-76
2022/12/19 13:15:41;;;;;;;31.98;13.60;;;6.60;76.90;;;;;;6153119;23;20409;-75
2022/12/19 13:18:39;;;;;;;28.50;12.43;;;6.70;77.20;;;;;;6151836;23;20220;-76
2022/12/19 13:21:09;;;;;;;28.63;13.17;;;6.70;77.20;;;;;;6154351;23;20216;-76
2022/12/19 13:24:10;;;;;;;28.13;11.50;;;6.80;77.30;;;;;;6156551;23;20163;-76
2022/12/19 13:26:49;;;;;;;26.30;11.70;;;6.70;76.80;;;;;;6155612;23;20524;-75